Atlantic - Newfoundland: Past 24 Hour Conditions

 

Daniel's Harbour

06:30 PM NDT 17 September 2014
This table is a summary of hourly weather conditions for the past 24 hours.
Date / Time
(NDT)
Wind(knots) Conditions Visibility(km) Pressure(kPa) Air tempC) Relative humidity(%) Dew pointC)
17 September 2014
18:30 WSW 15 gust 20 N/A 15 100.9 13 72 8
17:30 SW 16 gust 27 N/A 15 100.9 14 76 10
16:30 SW 20 gust 27 N/A 15 100.8 15 74 10
15:30 SSW 19 gust 30 N/A 15 100.7 15 75 11
14:30 SSW 17 gust 26 N/A 15 100.7 15 73 11
13:30 SSW 21 gust 27 N/A 15 100.7 16 71 10
12:30 SSW 18 N/A 15 100.8 15 73 10
11:30 SSW 16 gust 22 N/A 15 100.8 15 75 11
10:30 S 13 gust 18 N/A 15 100.8 14 82 11
9:30 S 9 gust 18 N/A 15 100.8 12 84 9
8:30 SSW 9 N/A 15 100.8 12 83 9
7:30 S 12 N/A 15 100.8 11 84 9
6:30 S 12 N/A 15 100.8 12 85 9
5:30 SW 16 gust 27 N/A 6 100.8 12 83 9
4:30 S 11 N/A 15 100.8 12 82 9
3:30 S 12 gust 18 N/A 13 100.8 11 82 8
2:30 SSW 15 gust 21 N/A 15 100.9 12 81 9
1:30 SW 18 gust 26 N/A 4 100.9 12 82 9
0:30 SW 15 gust 20 N/A 15 100.9 14 71 9
16 September 2014
23:30 SSW 10 N/A 15 100.9 13 71 7
22:30 S 9 N/A 15 101.0 12 71 7
21:30 S 6 N/A 15 101.0 12 72 7
20:30 SSW 14 gust 19 N/A 15 101.1 13 66 7
19:30 SW 10 gust 17 N/A 15 101.1 13 61 5
18:30 SW 13 gust 19 N/A 15 101.1 13 65 6
 
Map of Atlantic - Newfoundland marine weather areas Southwestern Grand Banks - 44138 Banquereau - 44139 Tail of the Bank - 44140 Nickerson Bank - 44251 Northeast Burgeo Bank - 44255 Blanc-Sablon Airport Cap Whittle Chevery Natashquan Airport Heath Point Miscou Island Grand Étang Ingonish Beach North Mountain St.Paul Island J.A. Douglas McCurdy Sydney Airport Charlottetown Airport East Point North Cape Argentia Bonavista Burgeo Cape Race Corner Brook Daniel's Harbour Englee Ferolle Point La Scie Port aux Basques Rocky Harbour Sagona Island St. Anthony Airport St. John's Int'l Airport St. Lawrence Stephenville Airport Twillingate Winterland Wreckhouse Cartwright Airport Mary's Harbour Grates Cove Pool's Island Marticot Island Long Pond Îles de la Madeleine Airport
Legend: buoyBuoy land stationLand Station